.
WxDataArchive / Data Records for 2010-01-13
2010-01-12 January 2010 2010-01-14

Data Records for Wednesday, 13 January 2010

Time	Temp	Chill	HIndex	Humid	Dewpt	 Wind 	HiWind	WindDir	Rain 	Barom 
-----	----	-----	------	-----	-----	------	------	-------	-----	----- 
00:00	24.7	24.7	24.7	78	18.8	2	4	248	0.00	30.416 
00:05	24.7	24.7	24.7	78	18.8	1	3	248	0.00	30.416 
00:10	24.7	24.7	24.7	78	18.8	2	5	270	0.00	30.416 
00:15	24.7	24.7	24.7	78	18.8	2	5	270	0.00	30.407 
00:20	24.5	24.5	24.5	78	18.6	2	7	225	0.00	30.407 
00:25	24.5	24.5	24.5	78	18.6	2	6	248	0.00	30.407 
00:30	24.5	24.5	24.5	78	18.6	2	7	248	0.00	30.400 
00:35	24.5	24.5	24.5	78	18.6	3	9	248	0.00	30.400 
00:40	24.5	24.5	24.5	78	18.6	2	6	270	0.00	30.400 
00:45	24.5	24.5	24.5	78	18.6	1	4	248	0.00	30.398 
00:50	24.5	24.5	24.5	78	18.6	2	5	248	0.00	30.398 
00:55	24.4	24.4	24.4	78	18.5	1	6	248	0.00	30.398 
01:00	24.4	24.4	24.4	78	18.5	1	3	248	0.00	30.385 
01:05	24.4	24.4	24.4	78	18.5	2	5	248	0.00	30.385 
01:10	24.4	24.4	24.4	78	18.5	1	4	248	0.00	30.385 
01:15	24.4	24.4	24.4	78	18.5	2	6	225	0.00	30.382 
01:20	24.2	24.2	24.2	78	18.3	2	7	248	0.00	30.382 
01:25	24.2	24.2	24.2	78	18.3	1	5	248	0.00	30.382 
01:30	24.2	24.2	24.2	78	18.3	2	4	248	0.00	30.377 
01:35	24.2	24.2	24.2	77	18.1	2	7	248	0.00	30.377 
01:40	24.2	24.2	24.2	77	18.1	1	3	248	0.00	30.377 
01:45	24.2	24.2	24.2	77	18.1	2	7	248	0.00	30.370 
01:50	24.2	24.2	24.2	77	18.1	2	9	248	0.00	30.370 
01:55	24.1	24.1	24.1	77	18.0	1	4	248	0.00	30.370 
02:00	24.1	24.1	24.1	77	18.0	1	6	248	0.00	30.369 
02:05	23.9	23.9	23.9	77	17.8	2	4	248	0.00	30.369 
02:10	23.9	23.9	23.9	77	17.8	1	3	248	0.00	30.369 
02:15	23.9	23.9	23.9	77	17.8	1	6	248	0.00	30.370 
02:20	23.8	23.8	23.8	77	17.7	1	3	248	0.00	30.370 
02:25	23.6	23.6	23.6	77	17.5	1	4	248	0.00	30.370 
02:30	23.5	23.5	23.5	77	17.4	2	5	248	0.00	30.375 
02:35	23.3	23.3	23.3	77	17.2	0	2	248	0.00	30.375 
02:40	23.2	23.2	23.2	77	17.1	0	4	248	0.00	30.375 
02:45	22.9	22.9	22.9	77	16.8	0	2	248	0.00	30.373 
02:50	22.7	22.7	22.7	78	16.9	0	2	248	0.00	30.373 
02:55	22.5	22.5	22.5	78	16.7	0	2	248	0.00	30.373 
03:00	22.2	22.2	22.2	78	16.4	0	2	248	0.00	30.369 
03:05	22.1	22.1	22.1	78	16.3	0	2	248	0.00	30.369 
03:10	21.8	21.8	21.8	78	16.0	0	1	248	0.00	30.369 
03:15	21.4	21.4	21.4	78	15.6	0	0	---	0.00	30.373 
03:20	21.1	21.1	21.1	79	15.6	0	1	248	0.00	30.373 
03:25	21.0	21.0	21.0	79	15.5	0	1	248	0.00	30.373 
03:30	20.8	20.8	20.8	80	15.6	0	2	248	0.00	30.374 
03:35	20.6	20.6	20.6	80	15.4	0	2	248	0.00	30.374 
03:40	20.6	20.6	20.6	81	15.7	0	2	248	0.00	30.374 
03:45	20.6	20.6	20.6	81	15.7	1	4	248	0.00	30.375 
03:50	20.6	20.6	20.6	81	15.7	0	2	225	0.00	30.375 
03:55	20.6	20.6	20.6	81	15.7	1	3	225	0.00	30.375 
04:00	20.6	20.6	20.6	81	15.7	0	3	225	0.00	30.374 
04:05	20.5	20.5	20.5	81	15.6	0	2	225	0.00	30.374 
04:10	20.3	20.3	20.3	82	15.7	1	4	248	0.00	30.374 
04:15	20.2	20.2	20.2	82	15.6	0	3	248	0.00	30.373 
04:20	20.0	20.0	20.0	82	15.4	1	2	248	0.00	30.373 
04:25	19.9	19.9	19.9	82	15.3	1	2	248	0.00	30.373 
04:30	19.7	19.7	19.7	82	15.1	1	4	248	0.00	30.360 
04:35	19.5	19.5	19.5	82	14.9	1	4	248	0.00	30.360 
04:40	19.4	19.4	19.4	83	15.1	1	4	248	0.00	30.360 
04:45	19.2	19.2	19.2	83	14.9	1	3	248	0.00	30.363 
04:50	19.1	19.1	19.1	83	14.8	0	2	248	0.00	30.363 
04:55	18.9	18.9	18.9	83	14.6	1	3	248	0.00	30.363 
05:00	18.8	18.8	18.8	83	14.5	1	4	248	0.00	30.367 
05:05	18.6	18.6	18.6	84	14.6	1	4	248	0.00	30.367 
05:10	18.6	18.6	18.6	84	14.6	1	4	248	0.00	30.367 
05:15	18.4	18.4	18.4	84	14.4	1	4	248	0.00	30.367 
05:20	18.3	18.3	18.3	84	14.3	1	3	248	0.00	30.367 
05:25	18.1	18.1	18.1	84	14.1	1	3	248	0.00	30.367 
05:30	18.0	18.0	18.0	84	14.0	1	3	248	0.00	30.362 
05:35	17.7	17.7	17.7	84	13.7	1	3	248	0.00	30.362 
05:40	17.5	17.5	17.5	84	13.5	1	4	248	0.00	30.362 
05:45	17.3	17.3	17.3	84	13.3	0	3	248	0.00	30.361 
05:50	17.3	17.3	17.3	84	13.3	1	3	248	0.00	30.361 
05:55	17.3	17.3	17.3	85	13.6	1	5	248	0.00	30.361 
06:00	17.3	17.3	17.3	85	13.6	1	4	248	0.00	30.360 
06:05	17.2	17.2	17.2	85	13.5	1	4	248	0.00	30.360 
06:10	17.2	17.2	17.2	85	13.5	1	4	248	0.00	30.360 
06:15	17.2	17.2	17.2	86	13.7	1	4	248	0.00	30.358 
06:20	17.2	17.2	17.2	86	13.7	1	4	248	0.00	30.358 
06:25	17.0	17.0	17.0	86	13.6	1	5	248	0.00	30.358 
06:30	17.0	17.0	17.0	86	13.6	2	5	248	0.00	30.357 
06:35	17.0	17.0	17.0	86	13.6	1	5	248	0.00	30.357 
06:40	17.0	17.0	17.0	86	13.6	1	3	248	0.00	30.357 
06:45	16.9	16.9	16.9	87	13.7	1	5	248	0.00	30.359 
06:50	17.0	17.0	17.0	87	13.8	1	5	248	0.00	30.359 
06:55	16.9	16.9	16.9	87	13.7	1	4	248	0.00	30.359 
07:00	16.9	16.9	16.9	87	13.7	1	3	248	0.00	30.359 
07:05	17.0	17.0	17.0	87	13.8	2	5	248	0.00	30.359 
07:10	17.0	17.0	17.0	87	13.8	2	5	248	0.00	30.359 
07:15	17.0	17.0	17.0	87	13.8	2	4	248	0.00	30.361 
07:20	17.0	17.0	17.0	87	13.8	1	3	248	0.00	30.361 
07:25	16.9	16.9	16.9	87	13.7	1	5	248	0.00	30.361 
07:30	16.9	16.9	16.9	87	13.7	1	4	248	0.00	30.360 
07:35	16.9	16.9	16.9	88	14.0	1	4	248	0.00	30.360 
07:40	16.7	16.7	16.7	88	13.8	0	2	248	0.00	30.360 
07:45	16.7	16.7	16.7	87	13.5	1	3	248	0.00	30.354 
07:50	16.7	16.7	16.7	88	13.8	1	5	248	0.00	30.354 
07:55	16.7	16.7	16.7	88	13.8	1	4	248	0.00	30.354 
08:00	16.7	16.7	16.7	88	13.8	1	4	248	0.00	30.347 
08:05	16.7	16.7	16.7	88	13.8	1	4	248	0.00	30.347 
08:10	16.5	16.5	16.5	87	13.3	1	4	248	0.00	30.347 
08:15	16.5	16.5	16.5	87	13.3	1	3	248	0.00	30.341 
08:20	16.5	16.5	16.5	88	13.6	0	4	248	0.00	30.341 
08:25	16.4	16.4	16.4	88	13.5	0	2	248	0.00	30.341 
08:30	16.5	16.5	16.5	88	13.6	1	3	248	0.00	30.343 
08:35	16.7	16.7	16.7	88	13.8	1	3	248	0.00	30.343 
08:40	16.9	16.9	16.9	88	14.0	1	3	248	0.00	30.343 
08:45	17.2	17.2	17.2	88	14.3	1	4	248	0.00	30.344 
08:50	17.3	17.3	17.3	88	14.4	1	5	248	0.00	30.344 
08:55	17.5	17.5	17.5	88	14.6	1	3	248	0.00	30.344 
09:00	17.8	17.8	17.8	88	14.9	1	5	225	0.00	30.344 
09:05	18.1	18.1	18.1	87	14.9	1	4	248	0.00	30.344 
09:10	18.4	18.4	18.4	87	15.2	1	4	248	0.00	30.344 
09:15	18.6	18.6	18.6	87	15.4	2	6	248	0.00	30.342 
09:20	18.9	18.9	18.9	86	15.4	2	5	248	0.00	30.342 
09:25	19.1	19.1	19.1	86	15.6	2	5	248	0.00	30.342 
09:30	19.2	19.2	19.2	85	15.4	2	5	248	0.00	30.339 
09:35	19.5	19.5	19.5	85	15.7	2	5	248	0.00	30.339 
09:40	19.9	19.9	19.9	84	15.9	1	4	225	0.00	30.339 
09:45	20.2	20.2	20.2	83	15.9	2	4	248	0.00	30.329 
09:50	20.5	20.5	20.5	83	16.2	1	4	248	0.00	30.329 
09:55	20.6	20.6	20.6	82	16.0	2	6	248	0.00	30.329 
10:00	21.0	21.0	21.0	81	16.1	3	7	248	0.00	30.326 
10:05	21.3	21.3	21.3	81	16.4	2	7	248	0.00	30.326 
10:10	21.6	21.6	21.6	80	16.4	3	10	248	0.00	30.326 
10:15	21.8	21.8	21.8	79	16.3	3	9	248	0.00	30.327 
10:20	22.2	22.2	22.2	79	16.7	2	9	248	0.00	30.327 
10:25	22.5	22.5	22.5	78	16.7	2	6	248	0.00	30.327 
10:30	23.0	23.0	23.0	77	16.9	2	5	248	0.00	30.322 
10:35	23.3	23.3	23.3	76	16.9	2	7	248	0.00	30.322 
10:40	23.6	23.6	23.6	75	16.9	3	7	248	0.00	30.322 
10:45	23.9	23.9	23.9	74	16.8	3	7	270	0.00	30.315 
10:50	24.1	24.1	24.1	74	17.0	3	6	248	0.00	30.315 
10:55	24.4	24.4	24.4	73	17.0	2	9	248	0.00	30.315 
11:00	24.7	24.7	24.7	73	17.3	3	6	225	0.00	30.308 
11:05	24.8	24.8	24.8	73	17.4	3	10	248	0.00	30.308 
11:10	25.1	25.1	25.1	72	17.4	3	10	248	0.00	30.308 
11:15	25.4	25.4	25.4	72	17.7	2	7	248	0.00	30.304 
11:20	25.7	25.7	25.7	71	17.6	3	11	248	0.00	30.304 
11:25	26.0	26.0	26.0	71	17.9	3	9	248	0.00	30.304 
11:30	26.1	21.3	26.1	70	17.7	4	9	270	0.00	30.293 
11:35	26.4	26.4	26.4	70	18.0	3	7	225	0.00	30.293 
11:40	26.7	26.7	26.7	70	18.3	3	6	225	0.00	30.293 
11:45	27.0	27.0	27.0	69	18.2	2	5	248	0.00	30.281 
11:50	27.5	27.5	27.5	69	18.7	3	7	248	0.00	30.281 
11:55	27.8	27.8	27.8	68	18.6	3	6	270	0.00	30.281 
12:00	28.1	28.1	28.1	68	18.9	2	7	248	0.00	30.271 
12:05	28.4	28.4	28.4	67	18.9	3	9	248	0.00	30.271 
12:10	28.7	28.7	28.7	66	18.8	3	7	248	0.00	30.271 
12:15	29.0	29.0	29.0	66	19.1	2	6	248	0.00	30.259 
12:20	29.3	29.3	29.3	65	19.0	3	6	248	0.00	30.259 
12:25	29.5	29.5	29.5	65	19.2	2	6	248	0.00	30.259 
12:30	30.0	30.0	30.0	65	19.7	2	6	248	0.00	30.248 
12:35	30.3	30.3	30.3	64	19.6	2	9	270	0.00	30.248 
12:40	30.6	30.6	30.6	63	19.5	3	7	248	0.00	30.248 
12:45	30.7	26.6	30.7	63	19.6	4	10	248	0.00	30.238 
12:50	30.9	30.9	30.9	63	19.8	2	5	248	0.00	30.238 
12:55	31.2	31.2	31.2	62	19.7	3	9	248	0.00	30.238 
13:00	31.5	31.5	31.5	62	20.0	3	10	248	0.00	30.229 
13:05	31.6	31.6	31.6	62	20.1	2	5	248	0.00	30.229 
13:10	31.8	31.8	31.8	62	20.3	2	6	248	0.00	30.229 
13:15	31.9	31.9	31.9	62	20.4	3	9	248	0.00	30.221 
13:20	32.1	32.1	32.1	61	20.2	3	9	248	0.00	30.221 
13:25	32.2	32.2	32.2	61	20.3	3	10	248	0.00	30.221 
13:30	32.4	32.4	32.4	61	20.5	2	5	248	0.00	30.217 
13:35	32.5	32.5	32.5	60	20.2	3	10	248	0.00	30.217 
13:40	32.5	32.5	32.5	61	20.6	3	9	248	0.00	30.217 
13:45	32.5	32.5	32.5	61	20.6	3	8	248	0.00	30.212 
13:50	32.5	32.5	32.5	61	20.6	3	9	248	0.00	30.212 
13:55	32.5	28.7	32.5	61	20.6	4	12	248	0.00	30.212 
14:00	32.7	32.7	32.7	61	20.8	3	9	248	0.00	30.203 
14:05	32.8	29.0	32.8	60	20.5	4	11	270	0.00	30.203 
14:10	32.9	32.9	32.9	61	20.9	3	10	248	0.00	30.203 
14:15	32.9	29.1	32.9	59	20.2	4	10	248	0.00	30.195 
14:20	33.1	29.3	33.1	60	20.7	4	14	248	0.00	30.195 
14:25	33.2	29.5	33.2	59	20.4	4	10	248	0.00	30.195 
14:30	33.2	33.2	33.2	59	20.4	3	10	248	0.00	30.191 
14:35	33.5	29.8	33.5	59	20.7	4	13	248	0.00	30.191 
14:40	33.5	33.5	33.5	59	20.7	3	7	248	0.00	30.191 
14:45	33.8	33.8	33.8	59	21.0	2	6	248	0.00	30.186 
14:50	34.0	34.0	34.0	59	21.2	2	6	225	0.00	30.186 
14:55	33.8	33.8	33.8	59	21.0	3	6	270	0.00	30.186 
15:00	33.7	33.7	33.7	59	20.9	3	7	248	0.00	30.179 
15:05	33.7	33.7	33.7	59	20.9	3	9	248	0.00	30.179 
15:10	33.7	33.7	33.7	59	20.9	3	9	225	0.00	30.179 
15:15	34.0	34.0	34.0	60	21.6	2	6	248	0.00	30.179 
15:20	34.0	34.0	34.0	59	21.2	3	11	248	0.00	30.179 
15:25	34.1	34.1	34.1	59	21.3	2	6	248	0.00	30.179 
15:30	34.1	34.1	34.1	59	21.3	2	5	248	0.00	30.177 
15:35	34.3	34.3	34.3	59	21.5	3	7	225	0.00	30.177 
15:40	34.4	34.4	34.4	59	21.6	2	6	248	0.00	30.177 
15:45	34.4	34.4	34.4	59	21.6	2	5	248	0.00	30.178 
15:50	34.6	34.6	34.6	59	21.8	3	12	248	0.00	30.178 
15:55	34.4	34.4	34.4	59	21.6	3	6	248	0.00	30.178 
16:00	34.4	34.4	34.4	59	21.6	2	6	270	0.00	30.178 
16:05	34.3	34.3	34.3	59	21.5	3	11	248	0.00	30.178 
16:10	34.1	34.1	34.1	60	21.7	3	7	248	0.00	30.178 
16:15	34.0	34.0	34.0	60	21.6	2	6	248	0.00	30.180 
16:20	34.0	30.4	34.0	60	21.6	4	12	248	0.00	30.180 
16:25	33.8	33.8	33.8	61	21.8	1	6	225	0.00	30.180 
16:30	33.8	33.8	33.8	60	21.4	3	6	248	0.00	30.179 
16:35	33.5	33.5	33.5	61	21.5	2	7	225	0.00	30.179 
16:40	33.2	33.2	33.2	61	21.2	2	6	270	0.00	30.179 
16:45	33.1	33.1	33.1	62	21.5	3	10	248	0.00	30.177 
16:50	32.9	32.9	32.9	62	21.3	1	6	248	0.00	30.177 
16:55	32.7	32.7	32.7	63	21.5	1	5	248	0.00	30.177 
17:00	32.5	32.5	32.5	63	21.3	1	5	270	0.00	30.177 
17:05	32.2	32.2	32.2	64	21.4	2	7	248	0.00	30.177 
17:10	32.1	32.1	32.1	64	21.3	2	9	248	0.00	30.177 
17:15	31.9	31.9	31.9	65	21.5	2	5	248	0.00	30.180 
17:20	31.8	31.8	31.8	65	21.4	2	6	248	0.00	30.180 
17:25	31.6	31.6	31.6	65	21.2	1	4	248	0.00	30.180 
17:30	31.5	31.5	31.5	65	21.1	2	5	248	0.00	30.180 
17:35	31.3	31.3	31.3	66	21.3	0	3	248	0.00	30.180 
17:40	30.9	30.9	30.9	66	20.9	1	3	270	0.00	30.180 
17:45	30.7	30.7	30.7	67	21.1	0	2	270	0.00	30.177 
17:50	30.4	30.4	30.4	68	21.1	1	5	248	0.00	30.177 
17:55	30.3	30.3	30.3	69	21.4	1	4	248	0.00	30.177 
18:00	30.1	30.1	30.1	69	21.2	1	4	248	0.00	30.180 
18:05	30.0	30.0	30.0	69	21.1	0	2	248	0.00	30.180 
18:10	30.0	30.0	30.0	70	21.4	1	4	248	0.00	30.180 
18:15	29.8	29.8	29.8	70	21.2	1	3	225	0.00	30.180 
18:20	29.7	29.7	29.7	70	21.1	1	3	270	0.00	30.180 
18:25	29.5	29.5	29.5	70	20.9	1	5	225	0.00	30.180 
18:30	29.4	29.4	29.4	71	21.2	1	4	225	0.00	30.179 
18:35	29.4	29.4	29.4	71	21.2	1	4	225	0.00	30.179 
18:40	29.4	29.4	29.4	71	21.2	2	6	248	0.00	30.179 
18:45	29.4	29.4	29.4	71	21.2	1	3	225	0.00	30.178 
18:50	29.3	29.3	29.3	72	21.4	1	4	248	0.00	30.178 
18:55	29.3	29.3	29.3	72	21.4	1	3	292	0.00	30.178 
19:00	29.3	29.3	29.3	72	21.4	1	5	248	0.00	30.175 
19:05	29.3	29.3	29.3	72	21.4	2	5	248	0.00	30.175 
19:10	29.3	29.3	29.3	72	21.4	1	4	248	0.00	30.175 
19:15	29.3	29.3	29.3	72	21.4	1	5	248	0.00	30.171 
19:20	29.3	29.3	29.3	72	21.4	1	4	248	0.00	30.171 
19:25	29.3	29.3	29.3	72	21.4	1	5	248	0.00	30.171 
19:30	29.3	29.3	29.3	72	21.4	1	5	248	0.00	30.172 
19:35	29.3	29.3	29.3	72	21.4	1	5	248	0.00	30.172 
19:40	29.1	29.1	29.1	72	21.2	0	2	248	0.00	30.172 
19:45	29.0	29.0	29.0	72	21.1	1	3	248	0.00	30.171 
19:50	29.0	29.0	29.0	72	21.1	1	4	270	0.00	30.171 
19:55	29.0	29.0	29.0	72	21.1	1	4	270	0.00	30.171 
20:00	28.8	28.8	28.8	72	20.9	1	4	270	0.00	30.171 
20:05	28.8	28.8	28.8	72	20.9	1	5	248	0.00	30.171 
20:10	28.8	28.8	28.8	72	20.9	1	3	248	0.00	30.171 
20:15	28.8	28.8	28.8	72	20.9	1	5	292	0.00	30.169 
20:20	28.7	28.7	28.7	72	20.8	1	6	248	0.00	30.169 
20:25	28.8	28.8	28.8	72	20.9	2	6	248	0.00	30.169 
20:30	29.0	29.0	29.0	72	21.1	1	4	248	0.00	30.167 
20:35	29.0	29.0	29.0	72	21.1	1	4	248	0.00	30.167 
20:40	29.1	29.1	29.1	72	21.2	1	3	225	0.00	30.167 
20:45	29.0	29.0	29.0	72	21.1	1	3	248	0.00	30.166 
20:50	29.1	29.1	29.1	72	21.2	1	4	248	0.00	30.166 
20:55	29.0	29.0	29.0	72	21.1	1	4	248	0.00	30.166 
21:00	29.0	29.0	29.0	72	21.1	2	6	248	0.00	30.166 
21:05	29.1	29.1	29.1	72	21.2	1	5	248	0.00	30.166 
21:10	29.1	29.1	29.1	72	21.2	1	5	248	0.00	30.166 
21:15	29.0	29.0	29.0	72	21.1	1	4	248	0.00	30.162 
21:20	29.1	29.1	29.1	72	21.2	1	4	248	0.00	30.162 
21:25	29.1	29.1	29.1	72	21.2	2	5	248	0.00	30.162 
21:30	29.1	29.1	29.1	71	20.9	1	5	248	0.00	30.160 
21:35	29.1	29.1	29.1	71	20.9	2	7	248	0.00	30.160 
21:40	29.1	29.1	29.1	71	20.9	2	4	248	0.00	30.160 
21:45	29.1	29.1	29.1	71	20.9	2	6	248	0.00	30.157 
21:50	29.0	29.0	29.0	71	20.8	1	4	248	0.00	30.157 
21:55	29.0	29.0	29.0	71	20.8	1	3	248	0.00	30.157 
22:00	28.8	28.8	28.8	71	20.6	1	4	248	0.00	30.155 
22:05	28.8	28.8	28.8	71	20.6	1	4	248	0.00	30.155 
22:10	29.0	29.0	29.0	71	20.8	2	5	248	0.00	30.155 
22:15	29.1	29.1	29.1	71	20.9	2	6	248	0.00	30.150 
22:20	29.1	29.1	29.1	70	20.6	1	5	248	0.00	30.150 
22:25	29.1	29.1	29.1	70	20.6	1	3	248	0.00	30.150 
22:30	29.1	29.1	29.1	70	20.6	1	5	248	0.00	30.159 
22:35	29.0	29.0	29.0	70	20.5	1	3	248	0.00	30.159 
22:40	29.0	29.0	29.0	70	20.5	0	3	248	0.00	30.159 
22:45	28.8	28.8	28.8	71	20.6	1	3	248	0.00	30.160 
22:50	28.8	28.8	28.8	71	20.6	1	3	248	0.00	30.160 
22:55	28.7	28.7	28.7	71	20.5	1	4	248	0.00	30.160 
23:00	28.7	28.7	28.7	71	20.5	1	3	248	0.00	30.161 
23:05	28.7	28.7	28.7	71	20.5	1	3	248	0.00	30.161 
23:10	28.5	28.5	28.5	71	20.3	1	3	248	0.00	30.161 
23:15	28.5	28.5	28.5	71	20.3	1	4	248	0.00	30.159 
23:20	28.5	28.5	28.5	71	20.3	1	4	248	0.00	30.159 
23:25	28.5	28.5	28.5	71	20.3	1	4	248	0.00	30.159 
23:30	28.5	28.5	28.5	71	20.3	1	4	248	0.00	30.163 
23:35	28.4	28.4	28.4	71	20.2	1	4	248	0.00	30.163 
23:40	28.4	28.4	28.4	71	20.2	1	3	248	0.00	30.163 
23:45	28.4	28.4	28.4	71	20.2	0	2	248	0.00	30.163 
23:50	28.2	28.2	28.2	71	20.0	1	3	248	0.00	30.163 
23:55	28.2	28.2	28.2	71	20.0	1	4	248	0.00	30.163 

CoCoRaHS
IN-AL-39
A2 Web Hosting
Creative Commons License
GoDaddy
search engine by freefind advanced

loaded 2018-11-14 04:27:00 • last modified 2010-11-18 10:43:29
Privacy PolicyDisclaimer
• wx.awcolley.com is powered by PmWiki v.2002016 •
• all content (unless otherwise noted) © 2018 A W Colley